createdAt,value
2022-08-28T00:01:53.292Z,1000.5
2022-08-28T00:04:41.024Z,1000.5
2022-08-28T00:07:28.872Z,1000.6
2022-08-28T00:10:17.139Z,1000.5
2022-08-28T00:13:08.654Z,1000.6
2022-08-28T00:16:03.174Z,1000.6
2022-08-28T00:18:51.556Z,1000.7
2022-08-28T00:21:39.147Z,1000.7
2022-08-28T00:24:27.669Z,1000.7
2022-08-28T00:27:16.131Z,1000.6
2022-08-28T00:30:37.511Z,1000.7
2022-08-28T00:33:28.515Z,1000.6
2022-08-28T00:36:19.879Z,1000.6
2022-08-28T00:39:09.605Z,1000.6
2022-08-28T00:41:58.009Z,1000.6
2022-08-28T00:44:46.749Z,1000.5
2022-08-28T00:47:34.310Z,1000.6
2022-08-28T00:50:23.853Z,1000.5
2022-08-28T00:54:58.822Z,1000.5
2022-08-28T00:57:51.207Z,1000.5
2022-08-28T01:00:41.585Z,1000.5
2022-08-28T01:03:29.619Z,1000.5
2022-08-28T01:06:17.443Z,1000.5
2022-08-28T01:09:05.299Z,1000.6
2022-08-28T01:11:52.865Z,1000.6
2022-08-28T01:14:46.547Z,1000.5
2022-08-28T01:17:40.153Z,1000.6
2022-08-28T01:20:37.347Z,1000.5
2022-08-28T01:23:32.345Z,1000.5
2022-08-28T01:26:34.012Z,1000.5
2022-08-28T01:29:23.199Z,1000.4
2022-08-28T01:32:13.248Z,1000.4
2022-08-28T01:35:12.977Z,1000.3
2022-08-28T01:38:04.668Z,1000.3
2022-08-28T01:40:52.528Z,1000.4
2022-08-28T01:43:42.039Z,1000.4
2022-08-28T01:46:30.615Z,1000.4
2022-08-28T01:49:18.480Z,1000.4
2022-08-28T01:52:06.515Z,1000.5
2022-08-28T01:54:54.212Z,1000.4
2022-08-28T01:57:41.884Z,1000.5
2022-08-28T02:00:32.409Z,1000.5
2022-08-28T02:03:20.241Z,1000.5
2022-08-28T02:06:08.289Z,1000.5
2022-08-28T02:08:56.540Z,1000.6
2022-08-28T02:11:46.542Z,1000.5
2022-08-28T02:14:34.704Z,1000.5
2022-08-28T02:17:23.128Z,1000.6
2022-08-28T02:20:11.116Z,1000.5
2022-08-28T02:22:59.259Z,1000.6
2022-08-28T02:25:47.379Z,1000.5
2022-08-28T02:28:37.485Z,1000.5
2022-08-28T02:31:25.897Z,1000.4
2022-08-28T02:34:13.836Z,1000.5
2022-08-28T02:37:01.447Z,1000.5
2022-08-28T02:39:49.445Z,1000.4
2022-08-28T02:42:41.799Z,1000.5
2022-08-28T02:45:30.555Z,1000.4
2022-08-28T02:48:19.099Z,1000.4
2022-08-28T02:51:07.027Z,1000.4
2022-08-28T02:53:58.010Z,1000.4
2022-08-28T02:56:46.009Z,1000.4
2022-08-28T02:59:33.886Z,1000.5
2022-08-28T03:02:22.673Z,1000.5
2022-08-28T03:05:11.180Z,1000.6
2022-08-28T03:08:01.000Z,1000.5
2022-08-28T03:10:50.156Z,1000.6
2022-08-28T03:13:38.163Z,1000.6
2022-08-28T03:16:27.101Z,1000.6
2022-08-28T03:19:14.993Z,1000.5
2022-08-28T03:22:03.186Z,1000.6
2022-08-28T03:24:50.764Z,1000.6
2022-08-28T03:27:38.420Z,1000.6
2022-08-28T03:30:26.013Z,1000.6
2022-08-28T03:33:13.865Z,1000.7
2022-08-28T03:36:04.591Z,1000.7
2022-08-28T03:38:53.160Z,1000.7
2022-08-28T03:41:43.617Z,1000.6
2022-08-28T03:44:31.177Z,1000.6
2022-08-28T03:47:18.664Z,1000.7
2022-08-28T03:50:09.972Z,1000.7
2022-08-28T03:52:59.167Z,1000.7
2022-08-28T03:55:46.801Z,1000.6
2022-08-28T03:58:34.501Z,1000.6
2022-08-28T04:01:22.475Z,1000.7
2022-08-28T04:04:11.137Z,1000.8
2022-08-28T04:06:59.514Z,1000.8
2022-08-28T04:09:47.183Z,1000.8
2022-08-28T04:12:35.421Z,1000.8
2022-08-28T04:15:23.421Z,1000.8
2022-08-28T04:18:11.371Z,1000.9
2022-08-28T04:20:59.468Z,1000.8
2022-08-28T04:23:50.712Z,1000.8
2022-08-28T04:26:39.013Z,1000.8
2022-08-28T04:29:26.652Z,1000.8
2022-08-28T04:32:14.961Z,1000.8
2022-08-28T04:35:02.667Z,1000.8
2022-08-28T04:37:57.548Z,1000.7
2022-08-28T04:40:46.433Z,1000.7
2022-08-28T04:43:34.709Z,1000.8
2022-08-28T04:46:22.637Z,1000.8
2022-08-28T04:49:11.196Z,1000.8
2022-08-28T04:51:59.876Z,1000.8
2022-08-28T04:54:48.610Z,1000.8
2022-08-28T04:57:36.502Z,1000.8
2022-08-28T05:00:24.296Z,1000.8
2022-08-28T05:03:11.841Z,1000.8
2022-08-28T05:06:01.453Z,1000.8
2022-08-28T05:08:49.388Z,1000.8
2022-08-28T05:11:37.292Z,1000.8
2022-08-28T05:14:25.311Z,1000.8
2022-08-28T05:17:12.946Z,1000.8
2022-08-28T05:20:00.992Z,1000.7
2022-08-28T05:22:50.870Z,1000.8
2022-08-28T05:25:38.769Z,1000.8
2022-08-28T05:28:29.464Z,1000.8
2022-08-28T05:31:17.543Z,1000.8
2022-08-28T05:34:07.330Z,1000.8
2022-08-28T05:36:55.284Z,1000.9
2022-08-28T05:39:42.863Z,1001
2022-08-28T05:42:31.852Z,1001
2022-08-28T05:45:20.685Z,1001
2022-08-28T05:48:09.057Z,1001
2022-08-28T05:50:56.831Z,1001
2022-08-28T05:53:49.032Z,1000.9
2022-08-28T05:56:36.667Z,1000.9
2022-08-28T05:59:28.902Z,1001.1
2022-08-28T06:02:17.033Z,1001
2022-08-28T06:05:04.783Z,1001
2022-08-28T06:07:53.224Z,1001
2022-08-28T06:10:40.968Z,1001
2022-08-28T06:13:32.122Z,1001.1
2022-08-28T06:16:20.529Z,1001.1
2022-08-28T06:19:08.188Z,1001.2
2022-08-28T06:21:57.451Z,1001.1
2022-08-28T06:24:47.251Z,1001.2
2022-08-28T06:27:35.017Z,1001.2
2022-08-28T06:30:23.975Z,1001.1
2022-08-28T06:33:12.671Z,1001.1
2022-08-28T06:36:01.556Z,1001.1
2022-08-28T06:38:50.802Z,1001.2
2022-08-28T06:41:39.664Z,1001.2
2022-08-28T06:44:28.418Z,1001.2
2022-08-28T06:47:17.016Z,1001.2
2022-08-28T06:50:04.840Z,1001.3
2022-08-28T06:52:53.611Z,1001.3
2022-08-28T06:55:42.275Z,1001.2
2022-08-28T06:58:30.793Z,1001.3
2022-08-28T07:01:19.595Z,1001.4
2022-08-28T07:04:11.645Z,1001.3
2022-08-28T07:06:59.768Z,1001.3
2022-08-28T07:09:47.600Z,1001.4
2022-08-28T07:12:35.301Z,1001.3
2022-08-28T07:15:22.944Z,1001.4
2022-08-28T07:18:10.577Z,1001.4
2022-08-28T07:20:58.436Z,1001.4
2022-08-28T07:23:46.970Z,1001.3
2022-08-28T07:26:34.969Z,1001.3
2022-08-28T07:29:26.132Z,1001.3
2022-08-28T07:32:14.021Z,1001.3
2022-08-28T07:35:03.097Z,1001.4
2022-08-28T07:37:52.244Z,1001.3
2022-08-28T07:40:40.016Z,1001.3
2022-08-28T07:43:27.693Z,1001.4
2022-08-28T07:46:47.278Z,1001.3
2022-08-28T07:49:39.559Z,1001.3
2022-08-28T07:52:27.283Z,1001.4
2022-08-28T07:55:14.788Z,1001.4
2022-08-28T07:58:02.582Z,1001.4
2022-08-28T08:00:50.372Z,1001.3
2022-08-28T08:03:38.544Z,1001.4
2022-08-28T08:06:26.179Z,1001.3
2022-08-28T08:09:22.603Z,1001.5
2022-08-28T08:12:11.633Z,1001.4
2022-08-28T08:15:00.536Z,1001.4
2022-08-28T08:17:48.732Z,1001.5
2022-08-28T08:20:36.446Z,1001.4
2022-08-28T08:23:24.293Z,1001.5
2022-08-28T08:26:12.868Z,1001.5
2022-08-28T08:29:03.808Z,1001.6
2022-08-28T08:31:51.561Z,1001.6
2022-08-28T08:34:42.621Z,1001.6
2022-08-28T08:37:31.567Z,1001.6
2022-08-28T08:40:20.432Z,1001.6
2022-08-28T08:43:08.273Z,1001.6
2022-08-28T08:45:56.559Z,1001.7
2022-08-28T08:48:44.585Z,1001.7
2022-08-28T08:51:32.287Z,1001.7
2022-08-28T08:54:27.053Z,1001.7
2022-08-28T08:57:14.971Z,1001.7
2022-08-28T09:00:03.549Z,1001.7
2022-08-28T09:02:55.174Z,1001.7
2022-08-28T09:05:50.206Z,1001.7
2022-08-28T09:08:41.277Z,1001.8
2022-08-28T09:11:35.747Z,1001.8
2022-08-28T09:14:32.752Z,1001.8
2022-08-28T09:17:29.977Z,1001.9
2022-08-28T09:20:24.198Z,1002
2022-08-28T09:23:20.759Z,1001.9
2022-08-28T09:26:11.496Z,1001.9
2022-08-28T09:29:08.185Z,1001.9
2022-08-28T09:32:01.850Z,1002
2022-08-28T09:35:07.886Z,1002
2022-08-28T09:38:01.008Z,1001.9
2022-08-28T09:41:04.548Z,1001.9
2022-08-28T09:44:27.662Z,1001.9
2022-08-28T09:47:16.645Z,1001.9
2022-08-28T09:50:23.822Z,1002
2022-08-28T09:53:16.268Z,1002
2022-08-28T09:56:06.620Z,1001.9
2022-08-28T09:59:00.765Z,1002
2022-08-28T10:01:52.545Z,1002
2022-08-28T10:04:58.693Z,1001.9
2022-08-28T10:07:53.484Z,1001.9
2022-08-28T10:10:50.749Z,1002
2022-08-28T10:13:44.121Z,1001.9
2022-08-28T10:16:42.038Z,1002
2022-08-28T10:19:43.341Z,1002
2022-08-28T10:22:40.565Z,1001.9
2022-08-28T10:25:35.175Z,1002
2022-08-28T10:28:32.766Z,1002
2022-08-28T10:31:31.628Z,1002
2022-08-28T10:34:28.557Z,1002
2022-08-28T10:37:31.850Z,1002.1
2022-08-28T10:40:30.355Z,1002.1
2022-08-28T10:43:22.761Z,1002.1
2022-08-28T10:46:18.468Z,1002.1
2022-08-28T10:49:09.254Z,1002.1
2022-08-28T10:52:04.608Z,1002.2
2022-08-28T10:54:56.188Z,1002.1
2022-08-28T10:57:50.886Z,1002.2
2022-08-28T11:00:42.479Z,1002.2
2022-08-28T11:03:34.718Z,1002.2
2022-08-28T11:06:27.748Z,1002.2
2022-08-28T11:09:23.160Z,1002.2
2022-08-28T11:12:16.987Z,1002.2
2022-08-28T11:15:31.503Z,1002.2
2022-08-28T11:18:28.422Z,1002.2
2022-08-28T11:22:03.644Z,1002.3
2022-08-28T11:25:01.697Z,1002.3
2022-08-28T11:28:00.271Z,1002.4
2022-08-28T11:31:29.076Z,1002.4
2022-08-28T11:34:21.556Z,1002.4
2022-08-28T11:37:42.144Z,1002.4
2022-08-28T11:40:32.156Z,1002.4
2022-08-28T11:43:39.952Z,1002.4
2022-08-28T11:46:29.729Z,1002.5
2022-08-28T11:49:20.357Z,1002.5
2022-08-28T11:52:28.053Z,1002.5
2022-08-28T11:55:30.189Z,1002.6
2022-08-28T11:58:35.409Z,1002.6
2022-08-28T12:01:30.482Z,1002.6
2022-08-28T12:04:20.684Z,1002.5
2022-08-28T12:07:09.396Z,1002.5
2022-08-28T12:10:08.062Z,1002.5
2022-08-28T12:13:39.470Z,1002.6
2022-08-28T12:16:31.510Z,1002.6
2022-08-28T12:20:01.565Z,1002.6
2022-08-28T12:22:55.037Z,1002.6
2022-08-28T12:25:46.115Z,1002.5
2022-08-28T12:28:34.770Z,1002.5
2022-08-28T12:31:31.749Z,1002.6
2022-08-28T12:35:09.386Z,1002.6
2022-08-28T12:38:03.204Z,1002.6
2022-08-28T12:40:52.903Z,1002.5
2022-08-28T12:43:41.698Z,1002.5
2022-08-28T12:46:39.705Z,1002.4
2022-08-28T12:49:28.773Z,1002.5
2022-08-28T12:52:19.515Z,1002.5
2022-08-28T12:55:11.550Z,1002.6
2022-08-28T12:57:59.537Z,1002.5
2022-08-28T13:00:47.201Z,1002.6
2022-08-28T13:03:40.040Z,1002.5
2022-08-28T13:06:31.144Z,1002.5
2022-08-28T13:09:21.948Z,1002.6
2022-08-28T13:12:13.336Z,1002.6
2022-08-28T13:15:06.336Z,1002.6
2022-08-28T13:17:55.297Z,1002.6
2022-08-28T13:20:43.372Z,1002.6
2022-08-28T13:23:31.126Z,1002.6
2022-08-28T13:26:18.825Z,1002.6
2022-08-28T13:29:12.120Z,1002.6
2022-08-28T13:32:04.665Z,1002.6
2022-08-28T13:34:54.689Z,1002.6
2022-08-28T13:37:58.317Z,1002.6
2022-08-28T13:40:58.724Z,1002.6
2022-08-28T13:43:49.504Z,1002.6
2022-08-28T13:46:37.069Z,1002.6
2022-08-28T13:49:24.784Z,1002.5
2022-08-28T13:52:12.960Z,1002.6
2022-08-28T13:55:01.356Z,1002.5
2022-08-28T13:57:49.668Z,1002.6
2022-08-28T14:00:37.777Z,1002.7
2022-08-28T14:03:29.181Z,1002.7
2022-08-28T14:06:22.857Z,1002.7
2022-08-28T14:09:19.190Z,1002.7
2022-08-28T14:12:11.723Z,1002.8
2022-08-28T14:14:59.357Z,1002.7
2022-08-28T14:17:47.775Z,1002.8
2022-08-28T14:20:35.460Z,1002.8
2022-08-28T14:23:23.961Z,1002.8
2022-08-28T14:26:11.759Z,1002.9
2022-08-28T14:28:59.381Z,1002.8
2022-08-28T14:31:48.575Z,1002.9
2022-08-28T14:34:36.510Z,1002.8
2022-08-28T14:37:24.034Z,1002.8
2022-08-28T14:40:12.091Z,1002.8
2022-08-28T14:42:59.974Z,1002.8
2022-08-28T14:45:48.101Z,1002.8
2022-08-28T14:48:36.374Z,1002.9
2022-08-28T14:51:24.068Z,1002.9
2022-08-28T14:54:13.645Z,1002.9
2022-08-28T14:57:04.557Z,1002.9
2022-08-28T14:59:52.253Z,1002.8
2022-08-28T15:02:39.886Z,1002.8
2022-08-28T15:05:27.408Z,1002.9
2022-08-28T15:08:15.118Z,1002.9
2022-08-28T15:11:03.224Z,1002.9
2022-08-28T15:13:52.336Z,1002.8
2022-08-28T15:16:42.859Z,1002.9
2022-08-28T15:19:32.461Z,1002.9
2022-08-28T15:22:27.367Z,1002.9
2022-08-28T15:25:15.471Z,1003
2022-08-28T15:28:03.824Z,1002.9
2022-08-28T15:30:51.726Z,1002.9
2022-08-28T15:33:43.304Z,1002.9
2022-08-28T15:36:32.808Z,1002.9
2022-08-28T15:39:24.809Z,1002.9
2022-08-28T15:42:45.914Z,1002.9
2022-08-28T15:45:33.636Z,1003
2022-08-28T15:48:23.134Z,1003
2022-08-28T15:51:10.875Z,1003
2022-08-28T15:53:59.796Z,1003
2022-08-28T15:56:48.021Z,1003
2022-08-28T15:59:49.023Z,1003.1
2022-08-28T16:02:37.928Z,1003
2022-08-28T16:05:31.379Z,1003.1
2022-08-28T16:08:25.857Z,1003.1
2022-08-28T16:11:14.189Z,1003.1
2022-08-28T16:14:03.469Z,1003.2
2022-08-28T16:16:51.444Z,1003.1
2022-08-28T16:19:44.614Z,1003.2
2022-08-28T16:22:33.796Z,1003.2
2022-08-28T16:25:21.843Z,1003.2
2022-08-28T16:28:09.666Z,1003.3
2022-08-28T16:30:57.751Z,1003.4
2022-08-28T16:33:49.793Z,1003.3
2022-08-28T16:36:39.485Z,1003.3
2022-08-28T16:39:27.305Z,1003.3
2022-08-28T16:42:15.292Z,1003.4
2022-08-28T16:45:03.127Z,1003.3
2022-08-28T16:47:52.184Z,1003.4
2022-08-28T16:50:40.000Z,1003.4
2022-08-28T16:53:29.056Z,1003.4
2022-08-28T16:56:17.309Z,1003.3
2022-08-28T16:59:10.168Z,1003.4
2022-08-28T17:02:01.147Z,1003.3
2022-08-28T17:04:48.746Z,1003.3
2022-08-28T17:07:36.776Z,1003.3
2022-08-28T17:10:24.588Z,1003.4
2022-08-28T17:13:12.721Z,1003.4
2022-08-28T17:16:00.767Z,1003.4
2022-08-28T17:18:52.433Z,1003.5
2022-08-28T17:21:40.550Z,1003.5
2022-08-28T17:25:00.301Z,1003.4
2022-08-28T17:27:54.127Z,1003.5
2022-08-28T17:30:42.211Z,1003.4
2022-08-28T17:33:30.498Z,1003.4
2022-08-28T17:36:32.531Z,1003.4
2022-08-28T17:39:23.632Z,1003.5
2022-08-28T17:42:11.408Z,1003.6
2022-08-28T17:44:59.005Z,1003.6
2022-08-28T17:47:46.621Z,1003.6
2022-08-28T17:50:35.557Z,1003.7
2022-08-28T17:53:27.582Z,1003.7
2022-08-28T17:56:15.466Z,1003.6
2022-08-28T17:59:03.301Z,1003.7
2022-08-28T18:01:50.854Z,1003.7
2022-08-28T18:04:39.248Z,1003.8
2022-08-28T18:07:27.028Z,1003.9
2022-08-28T18:10:14.761Z,1003.8
2022-08-28T18:13:02.473Z,1003.9
2022-08-28T18:15:56.802Z,1004
2022-08-28T18:18:45.002Z,1004.1
2022-08-28T18:21:32.972Z,1004.1
2022-08-28T18:24:20.994Z,1004.2
2022-08-28T18:27:09.659Z,1004.2
2022-08-28T18:29:57.424Z,1004.2
2022-08-28T18:32:45.770Z,1004.3
2022-08-28T18:35:37.121Z,1004.2
2022-08-28T18:38:29.509Z,1004.3
2022-08-28T18:41:20.065Z,1004.3
2022-08-28T18:44:07.694Z,1004.4
2022-08-28T18:46:55.536Z,1004.4
2022-08-28T18:49:43.873Z,1004.4
2022-08-28T18:52:31.606Z,1004.5
2022-08-28T18:55:20.108Z,1004.4
2022-08-28T18:58:15.259Z,1004.4
2022-08-28T19:01:03.732Z,1004.5
2022-08-28T19:03:52.809Z,1004.5
2022-08-28T19:06:40.935Z,1004.5
2022-08-28T19:09:32.283Z,1004.5
2022-08-28T19:12:20.409Z,1004.5
2022-08-28T19:15:07.995Z,1004.6
2022-08-28T19:17:57.040Z,1004.6
2022-08-28T19:20:45.994Z,1004.6
2022-08-28T19:23:33.773Z,1004.6
2022-08-28T19:26:23.099Z,1004.6
2022-08-28T19:29:12.548Z,1004.7
2022-08-28T19:32:00.861Z,1004.7
2022-08-28T19:34:48.952Z,1004.7
2022-08-28T19:37:40.828Z,1004.7
2022-08-28T19:40:30.904Z,1004.8
2022-08-28T19:43:18.568Z,1004.9
2022-08-28T19:46:06.164Z,1004.9
2022-08-28T19:48:55.239Z,1005
2022-08-28T19:51:43.186Z,1004.9
2022-08-28T19:54:31.009Z,1005
2022-08-28T19:57:22.432Z,1004.9
2022-08-28T20:00:10.243Z,1004.9
2022-08-28T20:03:02.398Z,1004.9
2022-08-28T20:05:50.250Z,1004.9
2022-08-28T20:08:37.816Z,1004.9
2022-08-28T20:11:25.448Z,1005
2022-08-28T20:14:18.801Z,1005
2022-08-28T20:17:07.086Z,1005
2022-08-28T20:19:54.914Z,1005.1
2022-08-28T20:22:43.530Z,1005.1
2022-08-28T20:25:31.469Z,1004.6
2022-08-28T20:28:20.385Z,1005.1
2022-08-28T20:31:08.056Z,1005.1
2022-08-28T20:33:57.465Z,1005.1
2022-08-28T20:36:45.144Z,1005.2
2022-08-28T20:39:33.741Z,1005.3
2022-08-28T20:42:22.181Z,1005.2
2022-08-28T20:45:10.463Z,1005.3
2022-08-28T20:47:59.852Z,1005.3
2022-08-28T20:50:48.166Z,1005.3
2022-08-28T20:53:38.760Z,1005.3
2022-08-28T20:56:26.326Z,1005.3
2022-08-28T20:59:14.138Z,1005.3
2022-08-28T21:02:01.941Z,1005.3
2022-08-28T21:04:55.306Z,1005.3
2022-08-28T21:07:43.548Z,1005.3
2022-08-28T21:10:31.543Z,1005.3
2022-08-28T21:13:19.954Z,1005.4
2022-08-28T21:16:08.353Z,1005.4
2022-08-28T21:19:14.680Z,1005.4
2022-08-28T21:22:03.193Z,1005.4
2022-08-28T21:24:52.732Z,1005.5
2022-08-28T21:27:40.340Z,1005.4
2022-08-28T21:30:29.774Z,1005.5
2022-08-28T21:33:18.784Z,1005.5
2022-08-28T21:36:06.613Z,1005.5
2022-08-28T21:38:55.290Z,1005.5
2022-08-28T21:41:43.171Z,1005.6
2022-08-28T21:44:30.970Z,1005.6
2022-08-28T21:47:19.878Z,1005.5
2022-08-28T21:50:09.001Z,1005.7
2022-08-28T21:52:57.514Z,1005.6
2022-08-28T21:55:45.270Z,1005.6
2022-08-28T21:58:34.299Z,1005.7
2022-08-28T22:01:23.524Z,1005.7
2022-08-28T22:04:11.813Z,1005.7
2022-08-28T22:06:59.441Z,1005.8
2022-08-28T22:09:47.538Z,1005.6
2022-08-28T22:12:36.210Z,1005.7
2022-08-28T22:15:23.730Z,1005.7
2022-08-28T22:18:11.447Z,1005.7
2022-08-28T22:21:00.900Z,1005.8
2022-08-28T22:24:21.889Z,1005.8
2022-08-28T22:27:09.370Z,1005.8
2022-08-28T22:29:58.523Z,1005.8
2022-08-28T22:32:46.144Z,1005.7
2022-08-28T22:35:33.944Z,1005.7
2022-08-28T22:38:21.812Z,1005.7
2022-08-28T22:41:10.832Z,1005.7
2022-08-28T22:43:58.428Z,1005.8
2022-08-28T22:46:46.003Z,1005.8
2022-08-28T22:49:33.679Z,1005.8
2022-08-28T22:52:23.735Z,1005.9
2022-08-28T22:55:12.317Z,1005.9
2022-08-28T22:58:02.301Z,1005.9
2022-08-28T23:00:50.217Z,1005.9
2022-08-28T23:03:38.389Z,1006
2022-08-28T23:06:26.518Z,1005.9
2022-08-28T23:09:14.240Z,1006
2022-08-28T23:12:01.980Z,1005.9
2022-08-28T23:14:50.732Z,1006
2022-08-28T23:17:38.479Z,1005.9
2022-08-28T23:20:30.020Z,1005.9
2022-08-28T23:23:18.252Z,1005.9
2022-08-28T23:26:06.010Z,1005.9
2022-08-28T23:28:57.196Z,1005.9
2022-08-28T23:31:45.190Z,1006
2022-08-28T23:34:35.500Z,1006
2022-08-28T23:37:25.284Z,1005.9
2022-08-28T23:40:12.917Z,1006
2022-08-28T23:43:02.761Z,1005.9
2022-08-28T23:45:50.442Z,1006
2022-08-28T23:48:38.119Z,1005.9
2022-08-28T23:51:25.586Z,1005.9
2022-08-28T23:54:14.011Z,1005.9
2022-08-28T23:57:02.982Z,1005.9
2022-08-28T23:59:52.986Z,1005.9
